sensor_id;sensor_type;location;lat;lon;timestamp;P1;durP1;ratioP1;P2;durP2;ratioP2
84187;SDS011;74316;45.648;13.764;2023-12-22T00:01:41;5.40;;;3.15;;
84187;SDS011;74316;45.648;13.764;2023-12-22T00:04:07;13.70;;;3.90;;
84187;SDS011;74316;45.648;13.764;2023-12-22T00:06:37;6.30;;;3.38;;
84187;SDS011;74316;45.648;13.764;2023-12-22T00:09:04;8.93;;;3.75;;
84187;SDS011;74316;45.648;13.764;2023-12-22T00:11:29;10.15;;;3.78;;
84187;SDS011;74316;45.648;13.764;2023-12-22T00:13:55;9.45;;;3.53;;
84187;SDS011;74316;45.648;13.764;2023-12-22T00:16:21;9.82;;;3.67;;
84187;SDS011;74316;45.648;13.764;2023-12-22T00:18:47;6.15;;;3.38;;
84187;SDS011;74316;45.648;13.764;2023-12-22T00:21:13;9.48;;;3.80;;
84187;SDS011;74316;45.648;13.764;2023-12-22T00:23:38;6.93;;;3.15;;
84187;SDS011;74316;45.648;13.764;2023-12-22T00:26:07;7.97;;;3.50;;
84187;SDS011;74316;45.648;13.764;2023-12-22T00:28:33;6.43;;;3.45;;
84187;SDS011;74316;45.648;13.764;2023-12-22T00:30:59;7.40;;;3.60;;
84187;SDS011;74316;45.648;13.764;2023-12-22T00:33:25;4.90;;;3.03;;
84187;SDS011;74316;45.648;13.764;2023-12-22T00:35:51;5.93;;;3.15;;
84187;SDS011;74316;45.648;13.764;2023-12-22T00:38:17;3.83;;;3.33;;
84187;SDS011;74316;45.648;13.764;2023-12-22T00:40:43;7.78;;;3.58;;
84187;SDS011;74316;45.648;13.764;2023-12-22T00:43:09;10.70;;;4.32;;
84187;SDS011;74316;45.648;13.764;2023-12-22T00:45:35;4.75;;;3.60;;
84187;SDS011;74316;45.648;13.764;2023-12-22T00:48:01;5.95;;;3.30;;
84187;SDS011;74316;45.648;13.764;2023-12-22T00:50:28;8.30;;;4.25;;
84187;SDS011;74316;45.648;13.764;2023-12-22T00:52:54;5.50;;;3.85;;
84187;SDS011;74316;45.648;13.764;2023-12-22T00:55:20;4.50;;;3.30;;
84187;SDS011;74316;45.648;13.764;2023-12-22T00:57:47;5.20;;;3.28;;
84187;SDS011;74316;45.648;13.764;2023-12-22T01:00:13;8.15;;;3.40;;
84187;SDS011;74316;45.648;13.764;2023-12-22T01:02:39;7.47;;;3.45;;
84187;SDS011;74316;45.648;13.764;2023-12-22T01:05:05;6.47;;;3.67;;
84187;SDS011;74316;45.648;13.764;2023-12-22T01:07:31;6.43;;;3.65;;
84187;SDS011;74316;45.648;13.764;2023-12-22T01:09:56;7.03;;;3.17;;
84187;SDS011;74316;45.648;13.764;2023-12-22T01:12:26;5.55;;;3.15;;
84187;SDS011;74316;45.648;13.764;2023-12-22T01:14:53;6.55;;;3.58;;
84187;SDS011;74316;45.648;13.764;2023-12-22T01:17:18;8.20;;;3.42;;
84187;SDS011;74316;45.648;13.764;2023-12-22T01:19:45;8.10;;;3.53;;
84187;SDS011;74316;45.648;13.764;2023-12-22T01:22:11;3.85;;;3.08;;
84187;SDS011;74316;45.648;13.764;2023-12-22T01:24:36;7.53;;;3.55;;
84187;SDS011;74316;45.648;13.764;2023-12-22T01:27:05;7.47;;;3.78;;
84187;SDS011;74316;45.648;13.764;2023-12-22T01:29:30;10.85;;;3.50;;
84187;SDS011;74316;45.648;13.764;2023-12-22T01:31:57;8.02;;;3.80;;
84187;SDS011;74316;45.648;13.764;2023-12-22T01:34:23;7.35;;;3.40;;
84187;SDS011;74316;45.648;13.764;2023-12-22T01:36:48;4.47;;;3.22;;
84187;SDS011;74316;45.648;13.764;2023-12-22T01:39:14;3.47;;;2.95;;
84187;SDS011;74316;45.648;13.764;2023-12-22T01:41:41;7.05;;;3.60;;
84187;SDS011;74316;45.648;13.764;2023-12-22T01:44:07;4.20;;;3.05;;
84187;SDS011;74316;45.648;13.764;2023-12-22T01:46:33;5.80;;;3.65;;
84187;SDS011;74316;45.648;13.764;2023-12-22T01:49:01;4.22;;;3.42;;
84187;SDS011;74316;45.648;13.764;2023-12-22T01:51:28;4.50;;;3.25;;
84187;SDS011;74316;45.648;13.764;2023-12-22T01:53:56;3.17;;;2.97;;
84187;SDS011;74316;45.648;13.764;2023-12-22T01:56:22;5.53;;;3.38;;
84187;SDS011;74316;45.648;13.764;2023-12-22T01:58:50;7.10;;;3.35;;
84187;SDS011;74316;45.648;13.764;2023-12-22T02:01:18;4.25;;;3.60;;
84187;SDS011;74316;45.648;13.764;2023-12-22T02:03:46;5.13;;;3.58;;
84187;SDS011;74316;45.648;13.764;2023-12-22T02:06:15;4.32;;;3.65;;
84187;SDS011;74316;45.648;13.764;2023-12-22T02:08:42;5.90;;;3.58;;
84187;SDS011;74316;45.648;13.764;2023-12-22T02:11:12;3.78;;;3.28;;
84187;SDS011;74316;45.648;13.764;2023-12-22T02:13:39;6.90;;;3.50;;
84187;SDS011;74316;45.648;13.764;2023-12-22T02:16:09;6.50;;;3.30;;
84187;SDS011;74316;45.648;13.764;2023-12-22T02:18:48;6.05;;;3.47;;
84187;SDS011;74316;45.648;13.764;2023-12-22T02:21:18;4.35;;;3.45;;
84187;SDS011;74316;45.648;13.764;2023-12-22T02:23:44;3.95;;;3.47;;
84187;SDS011;74316;45.648;13.764;2023-12-22T02:26:12;4.28;;;3.20;;
84187;SDS011;74316;45.648;13.764;2023-12-22T02:28:47;4.85;;;3.53;;
84187;SDS011;74316;45.648;13.764;2023-12-22T02:31:16;6.70;;;3.50;;
84187;SDS011;74316;45.648;13.764;2023-12-22T02:33:48;4.05;;;3.40;;
84187;SDS011;74316;45.648;13.764;2023-12-22T02:36:18;4.80;;;3.22;;
84187;SDS011;74316;45.648;13.764;2023-12-22T02:38:46;9.80;;;3.60;;
84187;SDS011;74316;45.648;13.764;2023-12-22T02:41:14;5.88;;;3.45;;
84187;SDS011;74316;45.648;13.764;2023-12-22T02:43:40;4.70;;;3.47;;
84187;SDS011;74316;45.648;13.764;2023-12-22T02:46:12;5.90;;;3.55;;
84187;SDS011;74316;45.648;13.764;2023-12-22T02:48:39;4.43;;;3.45;;
84187;SDS011;74316;45.648;13.764;2023-12-22T02:51:04;4.75;;;3.65;;
84187;SDS011;74316;45.648;13.764;2023-12-22T02:53:31;4.68;;;3.30;;
84187;SDS011;74316;45.648;13.764;2023-12-22T02:55:57;4.38;;;3.03;;
84187;SDS011;74316;45.648;13.764;2023-12-22T02:58:23;8.15;;;3.88;;
84187;SDS011;74316;45.648;13.764;2023-12-22T03:00:51;4.78;;;3.05;;
84187;SDS011;74316;45.648;13.764;2023-12-22T03:03:16;6.65;;;3.17;;
84187;SDS011;74316;45.648;13.764;2023-12-22T03:05:42;9.68;;;3.33;;
84187;SDS011;74316;45.648;13.764;2023-12-22T03:08:08;4.82;;;3.63;;
84187;SDS011;74316;45.648;13.764;2023-12-22T03:10:34;5.07;;;3.70;;
84187;SDS011;74316;45.648;13.764;2023-12-22T03:13:00;4.30;;;3.78;;
84187;SDS011;74316;45.648;13.764;2023-12-22T03:15:26;5.90;;;3.20;;
84187;SDS011;74316;45.648;13.764;2023-12-22T03:17:54;4.22;;;3.25;;
84187;SDS011;74316;45.648;13.764;2023-12-22T03:20:23;5.10;;;3.47;;
84187;SDS011;74316;45.648;13.764;2023-12-22T03:22:52;3.58;;;3.22;;
84187;SDS011;74316;45.648;13.764;2023-12-22T03:25:18;3.53;;;3.17;;
84187;SDS011;74316;45.648;13.764;2023-12-22T03:27:45;3.47;;;3.17;;
84187;SDS011;74316;45.648;13.764;2023-12-22T03:30:11;4.63;;;3.42;;
84187;SDS011;74316;45.648;13.764;2023-12-22T03:32:37;7.15;;;3.35;;
84187;SDS011;74316;45.648;13.764;2023-12-22T03:35:03;6.38;;;3.40;;
84187;SDS011;74316;45.648;13.764;2023-12-22T03:37:29;4.07;;;3.45;;
84187;SDS011;74316;45.648;13.764;2023-12-22T03:39:54;5.55;;;3.25;;
84187;SDS011;74316;45.648;13.764;2023-12-22T03:42:21;7.53;;;3.20;;
84187;SDS011;74316;45.648;13.764;2023-12-22T03:44:47;4.45;;;2.65;;
84187;SDS011;74316;45.648;13.764;2023-12-22T03:47:13;6.38;;;3.38;;
84187;SDS011;74316;45.648;13.764;2023-12-22T03:49:40;6.22;;;3.00;;
84187;SDS011;74316;45.648;13.764;2023-12-22T03:52:06;5.93;;;3.35;;
84187;SDS011;74316;45.648;13.764;2023-12-22T03:54:32;4.45;;;3.40;;
84187;SDS011;74316;45.648;13.764;2023-12-22T03:56:58;3.42;;;3.20;;
84187;SDS011;74316;45.648;13.764;2023-12-22T03:59:24;4.45;;;3.15;;
84187;SDS011;74316;45.648;13.764;2023-12-22T04:01:51;5.90;;;3.42;;
84187;SDS011;74316;45.648;13.764;2023-12-22T04:04:17;5.68;;;3.05;;
84187;SDS011;74316;45.648;13.764;2023-12-22T04:06:43;4.47;;;2.97;;
84187;SDS011;74316;45.648;13.764;2023-12-22T04:09:09;3.53;;;3.13;;
84187;SDS011;74316;45.648;13.764;2023-12-22T04:11:36;10.82;;;3.20;;
84187;SDS011;74316;45.648;13.764;2023-12-22T04:14:02;8.40;;;2.75;;
84187;SDS011;74316;45.648;13.764;2023-12-22T04:16:28;3.30;;;3.05;;
84187;SDS011;74316;45.648;13.764;2023-12-22T04:18:53;3.65;;;3.35;;
84187;SDS011;74316;45.648;13.764;2023-12-22T04:21:19;3.47;;;3.17;;
84187;SDS011;74316;45.648;13.764;2023-12-22T04:23:46;5.55;;;3.22;;
84187;SDS011;74316;45.648;13.764;2023-12-22T04:26:12;3.40;;;3.00;;
84187;SDS011;74316;45.648;13.764;2023-12-22T04:28:38;4.10;;;3.00;;
84187;SDS011;74316;45.648;13.764;2023-12-22T04:31:06;10.18;;;3.28;;
84187;SDS011;74316;45.648;13.764;2023-12-22T04:33:36;6.72;;;3.35;;
84187;SDS011;74316;45.648;13.764;2023-12-22T04:36:01;3.28;;;3.05;;
84187;SDS011;74316;45.648;13.764;2023-12-22T04:38:27;9.00;;;3.40;;
84187;SDS011;74316;45.648;13.764;2023-12-22T04:40:53;3.35;;;3.05;;
84187;SDS011;74316;45.648;13.764;2023-12-22T04:43:19;6.00;;;3.67;;
84187;SDS011;74316;45.648;13.764;2023-12-22T04:45:45;5.28;;;3.15;;
84187;SDS011;74316;45.648;13.764;2023-12-22T04:48:12;3.13;;;2.92;;
84187;SDS011;74316;45.648;13.764;2023-12-22T04:50:37;3.78;;;3.35;;
84187;SDS011;74316;45.648;13.764;2023-12-22T04:53:03;4.55;;;3.10;;
84187;SDS011;74316;45.648;13.764;2023-12-22T04:55:29;3.28;;;2.97;;
84187;SDS011;74316;45.648;13.764;2023-12-22T04:57:55;4.25;;;3.20;;
84187;SDS011;74316;45.648;13.764;2023-12-22T05:00:20;3.67;;;3.30;;
84187;SDS011;74316;45.648;13.764;2023-12-22T05:02:46;3.55;;;3.25;;
84187;SDS011;74316;45.648;13.764;2023-12-22T05:05:12;3.72;;;3.00;;
84187;SDS011;74316;45.648;13.764;2023-12-22T05:07:38;3.40;;;3.10;;
84187;SDS011;74316;45.648;13.764;2023-12-22T05:10:05;6.28;;;3.60;;
84187;SDS011;74316;45.648;13.764;2023-12-22T05:12:31;3.13;;;2.83;;
84187;SDS011;74316;45.648;13.764;2023-12-22T05:14:58;8.85;;;3.40;;
84187;SDS011;74316;45.648;13.764;2023-12-22T05:17:24;6.70;;;2.97;;
84187;SDS011;74316;45.648;13.764;2023-12-22T05:19:51;3.40;;;3.05;;
84187;SDS011;74316;45.648;13.764;2023-12-22T05:22:17;13.80;;;2.92;;
84187;SDS011;74316;45.648;13.764;2023-12-22T05:24:43;11.25;;;3.17;;
84187;SDS011;74316;45.648;13.764;2023-12-22T05:27:08;11.18;;;3.10;;
84187;SDS011;74316;45.648;13.764;2023-12-22T05:29:35;15.32;;;3.03;;
84187;SDS011;74316;45.648;13.764;2023-12-22T05:32:04;12.15;;;3.97;;
84187;SDS011;74316;45.648;13.764;2023-12-22T05:34:30;5.88;;;3.03;;
84187;SDS011;74316;45.648;13.764;2023-12-22T05:36:56;9.98;;;3.50;;
84187;SDS011;74316;45.648;13.764;2023-12-22T05:39:22;8.00;;;3.10;;
84187;SDS011;74316;45.648;13.764;2023-12-22T05:41:48;6.60;;;3.17;;
84187;SDS011;74316;45.648;13.764;2023-12-22T05:44:14;7.68;;;2.97;;
84187;SDS011;74316;45.648;13.764;2023-12-22T05:46:39;11.10;;;3.22;;
84187;SDS011;74316;45.648;13.764;2023-12-22T05:49:05;8.35;;;3.15;;
84187;SDS011;74316;45.648;13.764;2023-12-22T05:51:37;14.13;;;3.10;;
84187;SDS011;74316;45.648;13.764;2023-12-22T05:54:05;13.93;;;2.88;;
84187;SDS011;74316;45.648;13.764;2023-12-22T05:56:31;6.00;;;3.38;;
84187;SDS011;74316;45.648;13.764;2023-12-22T05:58:57;6.57;;;3.30;;
84187;SDS011;74316;45.648;13.764;2023-12-22T06:01:23;8.70;;;3.10;;
84187;SDS011;74316;45.648;13.764;2023-12-22T06:03:50;7.43;;;2.90;;
84187;SDS011;74316;45.648;13.764;2023-12-22T06:06:16;5.30;;;3.08;;
84187;SDS011;74316;45.648;13.764;2023-12-22T06:08:41;11.80;;;4.45;;
84187;SDS011;74316;45.648;13.764;2023-12-22T06:11:07;4.60;;;3.42;;
84187;SDS011;74316;45.648;13.764;2023-12-22T06:13:33;9.10;;;3.50;;
84187;SDS011;74316;45.648;13.764;2023-12-22T06:15:58;17.05;;;3.65;;
84187;SDS011;74316;45.648;13.764;2023-12-22T06:18:24;9.38;;;2.95;;
84187;SDS011;74316;45.648;13.764;2023-12-22T06:20:49;16.50;;;4.25;;
84187;SDS011;74316;45.648;13.764;2023-12-22T06:23:15;17.23;;;3.95;;
84187;SDS011;74316;45.648;13.764;2023-12-22T06:25:41;35.28;;;4.43;;
84187;SDS011;74316;45.648;13.764;2023-12-22T06:28:08;29.38;;;4.32;;
84187;SDS011;74316;45.648;13.764;2023-12-22T06:30:34;17.30;;;3.72;;
84187;SDS011;74316;45.648;13.764;2023-12-22T06:33:00;14.70;;;3.70;;
84187;SDS011;74316;45.648;13.764;2023-12-22T06:35:26;7.82;;;3.90;;
84187;SDS011;74316;45.648;13.764;2023-12-22T06:37:53;14.98;;;3.95;;
84187;SDS011;74316;45.648;13.764;2023-12-22T06:40:19;10.48;;;3.53;;
84187;SDS011;74316;45.648;13.764;2023-12-22T06:42:45;19.00;;;3.58;;
84187;SDS011;74316;45.648;13.764;2023-12-22T06:45:12;15.10;;;3.63;;
84187;SDS011;74316;45.648;13.764;2023-12-22T06:47:38;8.82;;;3.00;;
84187;SDS011;74316;45.648;13.764;2023-12-22T06:50:03;10.20;;;3.47;;
84187;SDS011;74316;45.648;13.764;2023-12-22T06:52:29;15.23;;;3.60;;
84187;SDS011;74316;45.648;13.764;2023-12-22T06:54:58;9.13;;;3.70;;
84187;SDS011;74316;45.648;13.764;2023-12-22T06:57:25;12.40;;;3.53;;
84187;SDS011;74316;45.648;13.764;2023-12-22T06:59:51;9.82;;;3.72;;
84187;SDS011;74316;45.648;13.764;2023-12-22T07:02:18;11.05;;;4.10;;
84187;SDS011;74316;45.648;13.764;2023-12-22T07:07:46;9.15;;;3.33;;
84187;SDS011;74316;45.648;13.764;2023-12-22T07:10:12;15.00;;;4.05;;
84187;SDS011;74316;45.648;13.764;2023-12-22T07:12:37;7.15;;;4.45;;
84187;SDS011;74316;45.648;13.764;2023-12-22T07:15:04;6.07;;;3.40;;
84187;SDS011;74316;45.648;13.764;2023-12-22T07:17:32;13.00;;;4.35;;
84187;SDS011;74316;45.648;13.764;2023-12-22T07:19:57;12.98;;;4.05;;
84187;SDS011;74316;45.648;13.764;2023-12-22T07:22:23;17.02;;;4.70;;
84187;SDS011;74316;45.648;13.764;2023-12-22T07:24:49;14.73;;;5.20;;
84187;SDS011;74316;45.648;13.764;2023-12-22T07:27:17;27.25;;;5.38;;
84187;SDS011;74316;45.648;13.764;2023-12-22T07:29:44;22.85;;;5.43;;
84187;SDS011;74316;45.648;13.764;2023-12-22T07:32:10;25.48;;;5.18;;
84187;SDS011;74316;45.648;13.764;2023-12-22T07:34:36;7.85;;;4.00;;
84187;SDS011;74316;45.648;13.764;2023-12-22T07:37:02;19.40;;;4.38;;
84187;SDS011;74316;45.648;13.764;2023-12-22T07:39:29;19.73;;;3.97;;
84187;SDS011;74316;45.648;13.764;2023-12-22T07:41:55;18.17;;;4.40;;
84187;SDS011;74316;45.648;13.764;2023-12-22T07:44:21;24.30;;;5.03;;
84187;SDS011;74316;45.648;13.764;2023-12-22T07:46:57;25.33;;;5.05;;
84187;SDS011;74316;45.648;13.764;2023-12-22T07:49:26;12.48;;;4.47;;
84187;SDS011;74316;45.648;13.764;2023-12-22T07:51:52;16.33;;;4.30;;
84187;SDS011;74316;45.648;13.764;2023-12-22T07:54:18;25.65;;;4.93;;
84187;SDS011;74316;45.648;13.764;2023-12-22T07:56:44;21.98;;;5.07;;
84187;SDS011;74316;45.648;13.764;2023-12-22T07:59:10;22.45;;;4.93;;
84187;SDS011;74316;45.648;13.764;2023-12-22T08:01:36;50.67;;;6.70;;
84187;SDS011;74316;45.648;13.764;2023-12-22T08:04:01;36.50;;;6.70;;
84187;SDS011;74316;45.648;13.764;2023-12-22T08:06:29;26.40;;;6.07;;
84187;SDS011;74316;45.648;13.764;2023-12-22T08:08:55;34.65;;;7.43;;
84187;SDS011;74316;45.648;13.764;2023-12-22T08:11:20;30.75;;;7.03;;
84187;SDS011;74316;45.648;13.764;2023-12-22T08:13:49;50.88;;;7.18;;
84187;SDS011;74316;45.648;13.764;2023-12-22T08:16:18;47.30;;;8.32;;
84187;SDS011;74316;45.648;13.764;2023-12-22T08:18:45;35.30;;;7.40;;
84187;SDS011;74316;45.648;13.764;2023-12-22T08:21:11;33.60;;;7.75;;
84187;SDS011;74316;45.648;13.764;2023-12-22T08:23:39;48.20;;;7.63;;
84187;SDS011;74316;45.648;13.764;2023-12-22T08:26:05;36.22;;;6.85;;
84187;SDS011;74316;45.648;13.764;2023-12-22T08:28:31;24.67;;;6.90;;
84187;SDS011;74316;45.648;13.764;2023-12-22T08:30:58;37.80;;;7.60;;
84187;SDS011;74316;45.648;13.764;2023-12-22T08:33:24;29.05;;;7.25;;
84187;SDS011;74316;45.648;13.764;2023-12-22T08:35:53;29.58;;;8.00;;
84187;SDS011;74316;45.648;13.764;2023-12-22T08:38:20;33.38;;;7.93;;
84187;SDS011;74316;45.648;13.764;2023-12-22T08:40:46;30.42;;;7.28;;
84187;SDS011;74316;45.648;13.764;2023-12-22T08:43:12;22.92;;;7.55;;
84187;SDS011;74316;45.648;13.764;2023-12-22T08:45:39;22.50;;;7.63;;
84187;SDS011;74316;45.648;13.764;2023-12-22T08:48:05;18.15;;;7.28;;
84187;SDS011;74316;45.648;13.764;2023-12-22T08:50:33;19.85;;;7.93;;
84187;SDS011;74316;45.648;13.764;2023-12-22T08:52:59;22.85;;;7.40;;
84187;SDS011;74316;45.648;13.764;2023-12-22T08:55:25;18.75;;;6.78;;
84187;SDS011;74316;45.648;13.764;2023-12-22T08:57:52;17.33;;;5.57;;
84187;SDS011;74316;45.648;13.764;2023-12-22T09:00:18;22.38;;;5.22;;
84187;SDS011;74316;45.648;13.764;2023-12-22T09:02:44;14.75;;;4.97;;
84187;SDS011;74316;45.648;13.764;2023-12-22T09:05:10;17.23;;;4.78;;
84187;SDS011;74316;45.648;13.764;2023-12-22T09:07:37;27.33;;;7.78;;
84187;SDS011;74316;45.648;13.764;2023-12-22T09:10:04;30.02;;;11.43;;
84187;SDS011;74316;45.648;13.764;2023-12-22T09:12:31;30.65;;;13.40;;
84187;SDS011;74316;45.648;13.764;2023-12-22T09:14:57;39.38;;;15.07;;
84187;SDS011;74316;45.648;13.764;2023-12-22T09:17:26;37.42;;;14.07;;
84187;SDS011;74316;45.648;13.764;2023-12-22T09:19:52;25.50;;;10.43;;
84187;SDS011;74316;45.648;13.764;2023-12-22T09:22:20;16.02;;;8.77;;
84187;SDS011;74316;45.648;13.764;2023-12-22T09:24:46;16.73;;;8.52;;
84187;SDS011;74316;45.648;13.764;2023-12-22T09:27:12;24.60;;;8.00;;
84187;SDS011;74316;45.648;13.764;2023-12-22T09:29:38;23.80;;;7.70;;
84187;SDS011;74316;45.648;13.764;2023-12-22T09:32:03;19.52;;;7.30;;
84187;SDS011;74316;45.648;13.764;2023-12-22T09:34:30;23.27;;;7.45;;
84187;SDS011;74316;45.648;13.764;2023-12-22T09:36:55;17.38;;;6.97;;
84187;SDS011;74316;45.648;13.764;2023-12-22T09:39:21;23.42;;;7.57;;
84187;SDS011;74316;45.648;13.764;2023-12-22T09:41:48;16.30;;;7.43;;
84187;SDS011;74316;45.648;13.764;2023-12-22T09:44:21;19.30;;;8.63;;
84187;SDS011;74316;45.648;13.764;2023-12-22T09:46:47;19.92;;;9.35;;
84187;SDS011;74316;45.648;13.764;2023-12-22T09:49:15;23.33;;;10.02;;
84187;SDS011;74316;45.648;13.764;2023-12-22T09:51:42;23.88;;;10.90;;
84187;SDS011;74316;45.648;13.764;2023-12-22T09:54:09;38.08;;;9.98;;
84187;SDS011;74316;45.648;13.764;2023-12-22T09:56:35;26.75;;;9.40;;
84187;SDS011;74316;45.648;13.764;2023-12-22T09:59:06;25.38;;;8.10;;
84187;SDS011;74316;45.648;13.764;2023-12-22T10:01:35;26.30;;;9.65;;
84187;SDS011;74316;45.648;13.764;2023-12-22T10:04:02;20.08;;;8.82;;
84187;SDS011;74316;45.648;13.764;2023-12-22T10:06:29;16.15;;;6.72;;
84187;SDS011;74316;45.648;13.764;2023-12-22T10:08:54;18.85;;;6.90;;
84187;SDS011;74316;45.648;13.764;2023-12-22T10:11:21;19.48;;;8.45;;
84187;SDS011;74316;45.648;13.764;2023-12-22T10:13:48;28.05;;;9.35;;
84187;SDS011;74316;45.648;13.764;2023-12-22T10:16:18;26.92;;;10.35;;
84187;SDS011;74316;45.648;13.764;2023-12-22T10:18:44;28.23;;;9.90;;
84187;SDS011;74316;45.648;13.764;2023-12-22T10:21:11;22.80;;;9.43;;
84187;SDS011;74316;45.648;13.764;2023-12-22T10:23:37;23.60;;;9.18;;
84187;SDS011;74316;45.648;13.764;2023-12-22T10:26:02;19.33;;;10.05;;
84187;SDS011;74316;45.648;13.764;2023-12-22T10:28:28;20.05;;;7.93;;
84187;SDS011;74316;45.648;13.764;2023-12-22T10:30:55;16.98;;;8.32;;
84187;SDS011;74316;45.648;13.764;2023-12-22T10:33:22;19.95;;;7.70;;
84187;SDS011;74316;45.648;13.764;2023-12-22T10:35:48;23.98;;;8.38;;
84187;SDS011;74316;45.648;13.764;2023-12-22T10:38:17;27.83;;;7.90;;
84187;SDS011;74316;45.648;13.764;2023-12-22T10:40:45;14.20;;;7.38;;
84187;SDS011;74316;45.648;13.764;2023-12-22T10:43:11;14.38;;;7.22;;
84187;SDS011;74316;45.648;13.764;2023-12-22T10:45:37;16.38;;;6.80;;
84187;SDS011;74316;45.648;13.764;2023-12-22T10:48:06;20.20;;;12.13;;
84187;SDS011;74316;45.648;13.764;2023-12-22T10:50:32;26.45;;;14.88;;
84187;SDS011;74316;45.648;13.764;2023-12-22T10:52:58;24.48;;;10.18;;
84187;SDS011;74316;45.648;13.764;2023-12-22T10:55:23;26.67;;;18.17;;
84187;SDS011;74316;45.648;13.764;2023-12-22T10:57:49;28.65;;;17.17;;
84187;SDS011;74316;45.648;13.764;2023-12-22T11:00:15;21.75;;;12.57;;
84187;SDS011;74316;45.648;13.764;2023-12-22T11:02:42;14.90;;;12.25;;
84187;SDS011;74316;45.648;13.764;2023-12-22T11:05:12;25.23;;;15.63;;
84187;SDS011;74316;45.648;13.764;2023-12-22T11:07:41;26.40;;;16.83;;
84187;SDS011;74316;45.648;13.764;2023-12-22T11:10:14;24.92;;;16.13;;
84187;SDS011;74316;45.648;13.764;2023-12-22T11:12:45;25.30;;;14.00;;
84187;SDS011;74316;45.648;13.764;2023-12-22T11:15:12;24.33;;;13.95;;
84187;SDS011;74316;45.648;13.764;2023-12-22T11:17:41;23.33;;;14.80;;
84187;SDS011;74316;45.648;13.764;2023-12-22T11:20:12;23.95;;;15.10;;
84187;SDS011;74316;45.648;13.764;2023-12-22T11:22:38;20.80;;;14.15;;
84187;SDS011;74316;45.648;13.764;2023-12-22T11:25:06;21.00;;;13.43;;
84187;SDS011;74316;45.648;13.764;2023-12-22T11:27:33;19.95;;;13.38;;
84187;SDS011;74316;45.648;13.764;2023-12-22T11:30:00;18.90;;;14.30;;
84187;SDS011;74316;45.648;13.764;2023-12-22T11:32:26;21.60;;;13.85;;
84187;SDS011;74316;45.648;13.764;2023-12-22T11:34:54;21.88;;;12.40;;
84187;SDS011;74316;45.648;13.764;2023-12-22T11:37:22;19.33;;;13.00;;
84187;SDS011;74316;45.648;13.764;2023-12-22T11:39:48;26.17;;;13.50;;
84187;SDS011;74316;45.648;13.764;2023-12-22T11:42:15;13.32;;;11.75;;
84187;SDS011;74316;45.648;13.764;2023-12-22T11:44:45;24.60;;;12.60;;
84187;SDS011;74316;45.648;13.764;2023-12-22T11:47:11;21.75;;;12.45;;
84187;SDS011;74316;45.648;13.764;2023-12-22T11:49:39;19.25;;;11.23;;
84187;SDS011;74316;45.648;13.764;2023-12-22T11:52:48;29.75;;;12.55;;
84187;SDS011;74316;45.648;13.764;2023-12-22T11:54:54;20.30;;;11.30;;
84187;SDS011;74316;45.648;13.764;2023-12-22T11:59:53;21.23;;;10.13;;
84187;SDS011;74316;45.648;13.764;2023-12-22T12:02:42;16.60;;;9.88;;
84187;SDS011;74316;45.648;13.764;2023-12-22T12:05:08;21.60;;;9.73;;
84187;SDS011;74316;45.648;13.764;2023-12-22T12:07:45;27.60;;;9.93;;
84187;SDS011;74316;45.648;13.764;2023-12-22T12:15:34;22.80;;;9.20;;
84187;SDS011;74316;45.648;13.764;2023-12-22T12:18:00;17.85;;;8.85;;
84187;SDS011;74316;45.648;13.764;2023-12-22T12:20:26;22.80;;;9.55;;
84187;SDS011;74316;45.648;13.764;2023-12-22T12:22:55;16.05;;;7.97;;
84187;SDS011;74316;45.648;13.764;2023-12-22T12:25:22;12.00;;;7.82;;
84187;SDS011;74316;45.648;13.764;2023-12-22T12:30:35;15.23;;;7.45;;
84187;SDS011;74316;45.648;13.764;2023-12-22T12:33:08;18.15;;;8.55;;
84187;SDS011;74316;45.648;13.764;2023-12-22T12:35:37;19.08;;;8.20;;
84187;SDS011;74316;45.648;13.764;2023-12-22T12:38:04;15.73;;;8.23;;
84187;SDS011;74316;45.648;13.764;2023-12-22T12:40:30;16.98;;;9.32;;
84187;SDS011;74316;45.648;13.764;2023-12-22T12:43:00;21.00;;;7.75;;
84187;SDS011;74316;45.648;13.764;2023-12-22T12:45:26;22.23;;;7.88;;
84187;SDS011;74316;45.648;13.764;2023-12-22T12:50:22;18.43;;;8.07;;
84187;SDS011;74316;45.648;13.764;2023-12-22T12:52:48;26.10;;;8.95;;
84187;SDS011;74316;45.648;13.764;2023-12-22T12:55:18;15.85;;;8.18;;
84187;SDS011;74316;45.648;13.764;2023-12-22T12:57:46;16.63;;;8.25;;
84187;SDS011;74316;45.648;13.764;2023-12-22T13:00:26;15.77;;;8.70;;
84187;SDS011;74316;45.648;13.764;2023-12-22T13:02:58;12.73;;;8.13;;
84187;SDS011;74316;45.648;13.764;2023-12-22T13:05:27;16.98;;;8.88;;
84187;SDS011;74316;45.648;13.764;2023-12-22T13:08:05;20.73;;;9.05;;
84187;SDS011;74316;45.648;13.764;2023-12-22T13:10:36;17.70;;;8.98;;
84187;SDS011;74316;45.648;13.764;2023-12-22T13:13:02;19.05;;;9.27;;
84187;SDS011;74316;45.648;13.764;2023-12-22T13:15:28;27.15;;;9.32;;
84187;SDS011;74316;45.648;13.764;2023-12-22T13:17:55;21.85;;;9.68;;
84187;SDS011;74316;45.648;13.764;2023-12-22T13:20:21;31.27;;;9.45;;
84187;SDS011;74316;45.648;13.764;2023-12-22T13:22:47;27.17;;;9.80;;
84187;SDS011;74316;45.648;13.764;2023-12-22T13:25:13;22.75;;;8.43;;
84187;SDS011;74316;45.648;13.764;2023-12-22T13:27:49;26.52;;;10.48;;
84187;SDS011;74316;45.648;13.764;2023-12-22T13:30:34;18.33;;;9.07;;
84187;SDS011;74316;45.648;13.764;2023-12-22T13:33:01;35.92;;;9.93;;
84187;SDS011;74316;45.648;13.764;2023-12-22T13:35:28;26.70;;;8.85;;
84187;SDS011;74316;45.648;13.764;2023-12-22T13:37:54;22.90;;;10.00;;
84187;SDS011;74316;45.648;13.764;2023-12-22T13:40:20;16.48;;;7.70;;
84187;SDS011;74316;45.648;13.764;2023-12-22T13:42:56;18.95;;;8.07;;
84187;SDS011;74316;45.648;13.764;2023-12-22T13:45:22;21.40;;;9.55;;
84187;SDS011;74316;45.648;13.764;2023-12-22T13:47:49;18.52;;;8.52;;
84187;SDS011;74316;45.648;13.764;2023-12-22T13:50:15;23.85;;;9.07;;
84187;SDS011;74316;45.648;13.764;2023-12-22T13:52:41;20.90;;;8.00;;
84187;SDS011;74316;45.648;13.764;2023-12-22T13:55:19;27.13;;;9.70;;
84187;SDS011;74316;45.648;13.764;2023-12-22T13:57:58;20.90;;;9.02;;
84187;SDS011;74316;45.648;13.764;2023-12-22T14:00:24;22.77;;;7.97;;
84187;SDS011;74316;45.648;13.764;2023-12-22T14:02:58;22.95;;;8.27;;
84187;SDS011;74316;45.648;13.764;2023-12-22T14:05:26;18.95;;;8.25;;
84187;SDS011;74316;45.648;13.764;2023-12-22T14:07:53;17.58;;;8.35;;
84187;SDS011;74316;45.648;13.764;2023-12-22T14:10:19;23.67;;;7.18;;
84187;SDS011;74316;45.648;13.764;2023-12-22T14:12:49;19.50;;;7.40;;
84187;SDS011;74316;45.648;13.764;2023-12-22T14:15:15;17.02;;;7.20;;
84187;SDS011;74316;45.648;13.764;2023-12-22T14:17:41;20.38;;;7.53;;
84187;SDS011;74316;45.648;13.764;2023-12-22T14:20:27;20.15;;;7.60;;
84187;SDS011;74316;45.648;13.764;2023-12-22T14:22:52;17.70;;;7.22;;
84187;SDS011;74316;45.648;13.764;2023-12-22T14:25:18;19.25;;;6.72;;
84187;SDS011;74316;45.648;13.764;2023-12-22T14:27:44;14.05;;;6.97;;
84187;SDS011;74316;45.648;13.764;2023-12-22T14:30:11;14.82;;;6.70;;
84187;SDS011;74316;45.648;13.764;2023-12-22T14:32:39;16.15;;;7.57;;
84187;SDS011;74316;45.648;13.764;2023-12-22T14:35:05;14.98;;;6.97;;
84187;SDS011;74316;45.648;13.764;2023-12-22T14:37:32;19.27;;;7.22;;
84187;SDS011;74316;45.648;13.764;2023-12-22T14:39:58;19.85;;;8.05;;
84187;SDS011;74316;45.648;13.764;2023-12-22T14:42:24;16.73;;;8.23;;